createdAt,value
2022-12-27T00:17:30.321Z,100611.09
2022-12-27T00:25:19.872Z,100617.16
2022-12-27T00:30:37.849Z,100594.78
2022-12-27T00:35:47.711Z,100599.16
2022-12-27T00:43:36.673Z,100611.31
2022-12-27T01:02:15.242Z,100614.69
2022-12-27T01:07:32.160Z,100629.16
2022-12-27T01:09:58.995Z,100632.06
2022-12-27T01:12:27.583Z,100631.38
2022-12-27T01:14:54.311Z,100627.13
2022-12-27T01:17:20.945Z,100642.78
2022-12-27T01:19:50.699Z,100640.38
2022-12-27T01:22:17.485Z,100639.22
2022-12-27T01:24:44.164Z,100654.78
2022-12-27T01:27:10.857Z,100652.69
2022-12-27T01:29:37.616Z,100653.31
2022-12-27T01:32:04.517Z,100655.13
2022-12-27T01:34:31.540Z,100667.28
2022-12-27T01:36:58.440Z,100651.38
2022-12-27T01:39:31.129Z,100673.56
2022-12-27T01:42:16.235Z,100666.75
2022-12-27T01:44:51.170Z,100666.19
2022-12-27T01:47:42.169Z,100665.44
2022-12-27T01:50:43.377Z,100672.56
2022-12-27T01:53:41.902Z,100660.00
2022-12-27T01:56:25.893Z,100659.25
2022-12-27T01:59:11.241Z,100667.09
2022-12-27T02:01:47.783Z,100662.31
2022-12-27T02:04:28.802Z,100672.91
2022-12-27T02:06:55.593Z,100674.75
2022-12-27T02:09:39.362Z,100668.91
2022-12-27T02:12:09.794Z,100673.66
2022-12-27T02:14:49.774Z,100671.69
2022-12-27T02:17:29.323Z,100679.59
2022-12-27T02:20:21.515Z,100681.69
2022-12-27T02:23:57.372Z,100684.81
2022-12-27T02:26:44.884Z,100688.53
2022-12-27T02:29:39.276Z,100680.66
2022-12-27T02:32:33.926Z,100692.16
2022-12-27T02:35:18.516Z,100687.13
2022-12-27T02:38:00.109Z,100705.59
2022-12-27T02:40:48.838Z,100685.22
2022-12-27T02:43:35.564Z,100689.56
2022-12-27T02:49:55.304Z,100686.16
2022-12-27T02:53:12.168Z,100689.38
2022-12-27T02:56:31.177Z,100689.09
2022-12-27T03:00:03.759Z,100692.88
2022-12-27T03:03:26.996Z,100694.00
2022-12-27T03:06:42.597Z,100715.75
2022-12-27T03:10:03.979Z,100694.56
2022-12-27T03:13:13.827Z,100688.59
2022-12-27T03:16:09.114Z,100681.38
2022-12-27T03:18:58.401Z,100691.63
2022-12-27T03:22:11.619Z,100681.38
2022-12-27T03:24:59.238Z,100690.78
2022-12-27T03:27:39.067Z,100694.00
2022-12-27T03:30:31.329Z,100686.56
2022-12-27T03:33:16.739Z,100683.63
2022-12-27T03:36:13.801Z,100677.34
2022-12-27T03:39:09.194Z,100686.94
2022-12-27T03:42:32.004Z,100684.66
2022-12-27T03:44:58.881Z,100684.50
2022-12-27T03:47:52.971Z,100677.88
2022-12-27T03:50:36.371Z,100674.38
2022-12-27T03:53:39.696Z,100664.38
2022-12-27T03:56:09.666Z,100673.31
2022-12-27T03:58:36.386Z,100677.56
2022-12-27T04:01:03.331Z,100664.47
2022-12-27T04:03:30.176Z,100678.63
2022-12-27T04:05:59.899Z,100683.75
2022-12-27T04:08:45.282Z,100686.94
2022-12-27T04:11:30.624Z,100708.63
2022-12-27T04:14:16.056Z,100723.53
2022-12-27T04:17:01.519Z,100720.69
2022-12-27T04:19:47.097Z,100719.06
2022-12-27T04:22:33.686Z,100727.16
2022-12-27T04:25:19.175Z,100718.63
2022-12-27T04:28:04.653Z,100713.50
2022-12-27T04:30:50.074Z,100700.50
2022-12-27T04:33:35.570Z,100713.38
2022-12-27T04:36:06.612Z,100705.13
2022-12-27T04:38:36.210Z,100700.22
2022-12-27T04:41:22.057Z,100695.19
2022-12-27T04:44:07.295Z,100695.84
2022-12-27T04:46:55.818Z,100699.44
2022-12-27T04:49:46.286Z,100711.22
2022-12-27T04:52:42.003Z,100708.38
2022-12-27T04:55:23.598Z,100707.03
2022-12-27T04:57:52.536Z,100719.00
2022-12-27T05:00:49.799Z,100693.34
2022-12-27T05:03:27.151Z,100717.78
2022-12-27T05:05:58.883Z,100719.66
2022-12-27T05:08:51.653Z,100721.00
2022-12-27T05:11:37.170Z,100721.56
2022-12-27T05:14:13.235Z,100728.63
2022-12-27T05:16:46.664Z,100723.47
2022-12-27T05:19:15.385Z,100739.91
2022-12-27T05:22:05.996Z,100735.84
2022-12-27T05:24:52.287Z,100726.91
2022-12-27T05:27:19.117Z,100739.81
2022-12-27T05:29:49.209Z,100740.75
2022-12-27T05:32:16.130Z,100751.19
2022-12-27T05:34:49.012Z,100761.06
2022-12-27T05:37:15.882Z,100761.06
2022-12-27T05:39:42.686Z,100746.84
2022-12-27T05:42:09.363Z,100743.13
2022-12-27T05:44:36.128Z,100749.38
2022-12-27T05:47:05.742Z,100761.28
2022-12-27T05:49:34.756Z,100757.69
2022-12-27T05:52:01.449Z,100757.75
2022-12-27T05:54:28.393Z,100762.31
2022-12-27T05:56:55.058Z,100771.50
2022-12-27T05:59:21.758Z,100768.13
2022-12-27T06:01:48.532Z,100766.47
2022-12-27T06:04:15.286Z,100779.19
2022-12-27T06:06:46.209Z,100785.75
2022-12-27T06:09:12.963Z,100774.44
2022-12-27T06:11:39.675Z,100781.16
2022-12-27T06:14:06.311Z,100785.13
2022-12-27T06:24:44.671Z,100779.88
2022-12-27T06:37:54.393Z,100812.44
2022-12-27T06:40:21.938Z,100823.91
2022-12-27T06:42:48.644Z,100828.19
2022-12-27T06:53:18.033Z,100829.13
2022-12-27T06:55:46.150Z,100849.44
2022-12-27T06:58:13.675Z,100842.94
2022-12-27T07:00:42.416Z,100854.72
2022-12-27T07:19:20.418Z,100869.28
2022-12-27T07:29:58.756Z,100898.22
2022-12-27T07:32:25.444Z,100901.00
2022-12-27T07:37:33.384Z,100893.94
2022-12-27T07:53:42.223Z,100927.19
2022-12-27T07:56:25.239Z,100948.69
2022-12-27T07:58:55.315Z,100951.28
2022-12-27T08:01:29.936Z,100959.50
2022-12-27T08:03:59.396Z,100963.59
2022-12-27T08:06:35.115Z,100963.88
2022-12-27T08:09:07.280Z,100958.47
2022-12-27T08:11:37.251Z,100966.25
2022-12-27T08:14:04.045Z,100964.81
2022-12-27T08:16:32.691Z,100978.00
2022-12-27T08:19:08.242Z,100969.00
2022-12-27T08:21:48.439Z,100987.00
2022-12-27T08:53:52.566Z,101010.84
2022-12-27T08:56:19.294Z,101024.25
2022-12-27T08:58:50.220Z,101024.63
2022-12-27T09:01:18.211Z,101029.47
2022-12-27T09:03:45.064Z,101036.22
2022-12-27T09:06:24.892Z,101046.66
2022-12-27T09:08:55.932Z,101044.69
2022-12-27T09:11:30.481Z,101055.75
2022-12-27T09:14:05.361Z,101059.00
2022-12-27T09:16:36.350Z,101058.94
2022-12-27T09:19:06.450Z,101061.84
2022-12-27T09:21:48.362Z,101059.34
2022-12-27T09:24:15.458Z,101050.97
2022-12-27T09:26:44.634Z,101064.16
2022-12-27T09:29:11.707Z,101067.94
2022-12-27T09:31:38.554Z,101066.47
2022-12-27T09:34:05.196Z,101076.50
2022-12-27T09:36:32.005Z,101070.66
2022-12-27T09:38:59.348Z,101078.78
2022-12-27T09:44:52.769Z,101079.22
2022-12-27T09:47:34.314Z,101078.94
2022-12-27T09:50:13.764Z,101079.88
2022-12-27T09:53:10.641Z,101087.38
2022-12-27T09:55:58.050Z,101096.56
2022-12-27T09:58:48.317Z,101102.47
2022-12-27T10:01:27.552Z,101110.94
2022-12-27T10:03:54.594Z,101102.19
2022-12-27T10:06:50.748Z,101112.06
2022-12-27T10:10:34.188Z,101109.88
2022-12-27T10:13:49.512Z,101108.84
2022-12-27T10:17:11.412Z,101091.81
2022-12-27T10:20:41.244Z,101091.72
2022-12-27T10:23:20.782Z,101101.91
2022-12-27T10:25:56.353Z,101104.75
2022-12-27T10:28:57.211Z,101100.28
2022-12-27T10:31:29.935Z,101111.88
2022-12-27T10:33:58.241Z,101107.59
2022-12-27T10:36:53.579Z,101126.34
2022-12-27T10:39:35.964Z,101102.53
2022-12-27T10:42:08.041Z,101103.03
2022-12-27T10:44:35.043Z,101125.69
2022-12-27T10:47:02.342Z,101119.81
2022-12-27T10:49:39.568Z,101131.81
2022-12-27T10:52:35.783Z,101138.94
2022-12-27T10:55:02.472Z,101129.25
2022-12-27T10:57:35.933Z,101128.38
2022-12-27T11:00:23.647Z,101131.72
2022-12-27T11:02:56.837Z,101143.06
2022-12-27T11:05:34.148Z,101159.81
2022-12-27T11:08:20.988Z,101154.97
2022-12-27T11:11:25.479Z,101159.34
2022-12-27T11:14:09.114Z,101157.72
2022-12-27T11:16:37.325Z,101167.81
2022-12-27T11:19:07.218Z,101167.81
2022-12-27T11:21:40.977Z,101180.56
2022-12-27T11:24:19.096Z,101177.34
2022-12-27T11:26:59.980Z,101169.81
2022-12-27T11:29:34.288Z,101169.06
2022-12-27T11:32:08.829Z,101169.53
2022-12-27T11:34:45.143Z,101166.38
2022-12-27T11:37:26.042Z,101165.91
2022-12-27T11:40:15.817Z,101164.13
2022-12-27T11:43:05.260Z,101164.13
2022-12-27T11:45:51.357Z,101174.47
2022-12-27T11:48:38.518Z,101192.50
2022-12-27T11:52:04.923Z,101204.09
2022-12-27T11:55:00.265Z,101206.94
2022-12-27T11:58:00.491Z,101204.13
2022-12-27T12:00:54.158Z,101192.97
2022-12-27T12:04:33.006Z,101200.41
2022-12-27T12:07:47.562Z,101206.59
2022-12-27T12:48:26.874Z,101219.56
2022-12-27T13:28:48.962Z,101199.22
2022-12-27T13:46:42.448Z,101209.53
2022-12-27T13:49:56.530Z,101206.88
2022-12-27T13:53:00.082Z,101217.88
2022-12-27T14:03:22.054Z,101209.59
2022-12-27T14:06:37.601Z,101196.44
2022-12-27T14:09:50.013Z,101202.22
2022-12-27T14:12:56.429Z,101208.88
2022-12-27T14:15:43.869Z,101209.69
2022-12-27T14:18:52.760Z,101197.91
2022-12-27T14:22:19.560Z,101192.47
2022-12-27T14:25:41.505Z,101198.06
2022-12-27T14:28:59.958Z,101202.59
2022-12-27T14:32:12.293Z,101192.75
2022-12-27T14:35:35.124Z,101189.47
2022-12-27T14:38:38.640Z,101205.41
2022-12-27T14:41:48.949Z,101198.69
2022-12-27T14:45:18.060Z,101196.66
2022-12-27T14:48:42.653Z,101207.88
2022-12-27T14:55:11.917Z,101191.16
2022-12-27T14:58:16.397Z,101193.41
2022-12-27T15:01:15.412Z,101192.81
2022-12-27T15:04:44.344Z,101202.50
2022-12-27T15:07:51.168Z,101197.28
2022-12-27T15:10:49.709Z,101193.41
2022-12-27T15:13:59.322Z,101205.84
2022-12-27T15:17:40.754Z,101203.78
2022-12-27T15:20:35.379Z,101203.00
2022-12-27T15:23:25.871Z,101204.75
2022-12-27T15:26:27.209Z,101208.44
2022-12-27T15:29:09.597Z,101216.59
2022-12-27T15:32:23.958Z,101213.06
2022-12-27T15:48:28.178Z,101220.81
2022-12-27T15:51:33.011Z,101220.22
2022-12-27T15:54:27.406Z,101207.59
2022-12-27T15:58:03.181Z,101202.09
2022-12-27T16:00:34.883Z,101202.94
2022-12-27T16:03:34.472Z,101203.13
2022-12-27T16:06:03.284Z,101200.22
2022-12-27T16:08:48.897Z,101200.63
2022-12-27T16:11:16.078Z,101201.59
2022-12-27T16:13:51.322Z,101198.75
2022-12-27T16:16:27.003Z,101201.16
2022-12-27T16:19:45.239Z,101194.38
2022-12-27T16:22:34.170Z,101194.78
2022-12-27T16:25:31.399Z,101192.53
2022-12-27T16:28:23.827Z,101194.31
2022-12-27T16:30:56.770Z,101191.19
2022-12-27T16:33:30.651Z,101187.75
2022-12-27T16:36:28.370Z,101191.59
2022-12-27T16:38:55.101Z,101191.91
2022-12-27T16:41:39.560Z,101199.47
2022-12-27T16:44:33.170Z,101195.53
2022-12-27T16:48:21.045Z,101200.41
2022-12-27T16:51:28.093Z,101202.44
2022-12-27T16:54:26.444Z,101210.66
2022-12-27T16:57:28.007Z,101215.66
2022-12-27T17:14:22.514Z,101203.47
2022-12-27T17:17:10.419Z,101196.59
2022-12-27T17:20:07.678Z,101194.53
2022-12-27T17:22:41.305Z,101189.53
2022-12-27T17:32:15.134Z,101203.28
2022-12-27T17:35:29.306Z,101207.56
2022-12-27T17:57:50.590Z,101189.69
2022-12-27T18:00:31.845Z,101197.44
2022-12-27T18:05:50.233Z,101202.69
2022-12-27T18:11:23.512Z,101202.22
2022-12-27T18:13:58.905Z,101203.09
2022-12-27T18:16:41.850Z,101187.78
2022-12-27T18:30:15.616Z,101160.44
2022-12-27T18:44:01.885Z,101150.53
2022-12-27T18:56:00.808Z,101138.34
2022-12-27T18:58:28.571Z,101137.13
2022-12-27T19:01:17.966Z,101138.66
2022-12-27T19:04:17.137Z,101135.22
2022-12-27T19:16:03.863Z,101123.53
2022-12-27T19:18:40.860Z,101123.66
2022-12-27T19:37:37.995Z,101116.69
2022-12-27T19:40:06.480Z,101120.09
2022-12-27T19:45:25.697Z,101108.31
2022-12-27T19:50:38.274Z,101094.16
2022-12-27T19:53:05.049Z,101094.06
2022-12-27T19:55:33.845Z,101096.47
2022-12-27T19:58:06.971Z,101100.66
2022-12-27T20:08:51.774Z,101086.81
2022-12-27T20:11:24.342Z,101083.69
2022-12-27T20:19:18.477Z,101072.94
2022-12-27T20:29:54.897Z,101037.00
2022-12-27T20:32:21.636Z,101045.75
2022-12-27T20:34:48.361Z,101045.94
2022-12-27T20:37:18.476Z,101053.25
2022-12-27T20:39:48.022Z,101046.03
2022-12-27T20:42:17.015Z,101056.03
2022-12-27T21:01:18.467Z,101001.59
2022-12-27T21:03:48.674Z,100997.03
2022-12-27T21:06:34.948Z,101005.66
2022-12-27T21:09:01.893Z,100997.50
2022-12-27T21:11:32.126Z,100995.22
2022-12-27T21:14:02.749Z,100995.22
2022-12-27T21:16:34.285Z,100993.31
2022-12-27T21:19:03.516Z,100989.66
2022-12-27T21:21:36.745Z,100991.09
2022-12-27T21:24:06.822Z,100982.50
2022-12-27T21:26:39.105Z,100978.31
2022-12-27T21:29:12.311Z,100977.19
2022-12-27T21:31:42.832Z,100980.91
2022-12-27T21:34:12.870Z,100982.31
2022-12-27T21:36:39.632Z,100968.88
2022-12-27T21:39:07.631Z,100955.63
2022-12-27T21:41:39.906Z,100965.91
2022-12-27T21:44:07.450Z,100966.56
2022-12-27T21:46:41.743Z,100951.91
2022-12-27T21:49:13.145Z,100952.13
2022-12-27T21:51:44.028Z,100949.06
2022-12-27T21:54:13.547Z,100947.25
2022-12-27T21:56:40.540Z,100943.59
2022-12-27T21:59:10.836Z,100942.44
2022-12-27T22:01:50.225Z,100932.63
2022-12-27T22:04:22.293Z,100932.75
2022-12-27T22:06:49.877Z,100927.41
2022-12-27T22:09:19.801Z,100936.06
2022-12-27T22:11:51.757Z,100916.63
2022-12-27T22:14:25.210Z,100920.63
2022-12-27T22:16:52.278Z,100914.09
2022-12-27T22:19:19.927Z,100899.81
2022-12-27T22:21:49.086Z,100898.00
2022-12-27T22:24:20.080Z,100900.34
2022-12-27T22:26:50.580Z,100888.16
2022-12-27T22:29:22.021Z,100893.94
2022-12-27T22:31:48.796Z,100888.63
2022-12-27T22:34:18.757Z,100877.94
2022-12-27T22:36:48.861Z,100873.78
2022-12-27T22:39:16.173Z,100876.56
2022-12-27T22:41:43.228Z,100859.94
2022-12-27T22:44:15.283Z,100855.22
2022-12-27T22:47:25.020Z,100859.38
2022-12-27T22:49:30.111Z,100859.38
2022-12-27T22:51:59.641Z,100847.03
2022-12-27T22:55:05.317Z,100847.44
2022-12-27T22:57:19.398Z,100852.66
2022-12-27T22:59:49.026Z,100835.19
2022-12-27T23:02:16.038Z,100840.28
2022-12-27T23:04:43.029Z,100844.66
2022-12-27T23:07:09.786Z,100831.31
2022-12-27T23:09:40.983Z,100846.16
2022-12-27T23:12:09.673Z,100837.06
2022-12-27T23:14:36.496Z,100828.03
2022-12-27T23:17:09.667Z,100826.97
2022-12-27T23:19:36.351Z,100818.63
2022-12-27T23:22:03.094Z,100823.97
2022-12-27T23:24:29.786Z,100822.88
2022-12-27T23:26:57.918Z,100806.03
2022-12-27T23:29:27.607Z,100810.06
2022-12-27T23:31:55.854Z,100799.50
2022-12-27T23:34:28.927Z,100793.09
2022-12-27T23:36:59.071Z,100788.59
2022-12-27T23:39:26.805Z,100785.59
2022-12-27T23:41:53.893Z,100788.69
2022-12-27T23:44:33.310Z,100785.78
2022-12-27T23:47:03.795Z,100770.50
2022-12-27T23:49:30.896Z,100772.09
2022-12-27T23:51:57.658Z,100769.44
2022-12-27T23:54:24.769Z,100755.13
2022-12-27T23:56:51.379Z,100754.16
2022-12-27T23:59:18.468Z,100744.97
